JBU553 KFLL-TJSJ
Flight info
| Callsign | JBU553 |
|---|---|
| Flight time | 2h 9m |
| Altitude | 37000 |
| Route | SNAPR2 SUMAC Y421 HAGIT Y290 BEANO BEANO3 |
| Aircraft | A320/M-SDE3FGHIRWY/LB1 |
Departure
| Time | 2026-05-06 04:25 |
|---|---|
| Airport | Fort Lauderdale Hollywood International Airport (KFLL) |
Arrival
| Time | 2026-05-06 06:34 |
|---|---|
| Airport | Luis Munoz Marin International Airport (TJSJ) |
| Time | Latitude | Longitude | Altitude | Speed | Heading |
|---|---|---|---|---|---|
| 2026-05-06 03:55 | 26.06880 | -80.14432 | 16 ft | 0 kts | 0° |
| 2026-05-06 04:15 | 26.06867 | -80.14432 | 16 ft | 4 kts | 0° |
| 2026-05-06 04:15 | 26.06845 | -80.14432 | 16 ft | 4 kts | 359° |
| 2026-05-06 04:16 | 26.06823 | -80.14426 | 17 ft | 4 kts | 304° |
| 2026-05-06 04:16 | 26.06818 | -80.14402 | 17 ft | 4 kts | 270° |
| 2026-05-06 04:16 | 26.06818 | -80.14395 | 17 ft | 0 kts | 270° |
| 2026-05-06 04:18 | 26.06818 | -80.14407 | 17 ft | 4 kts | 271° |
| 2026-05-06 04:18 | 26.06819 | -80.14450 | 16 ft | 7 kts | 270° |
| 2026-05-06 04:19 | 26.06819 | -80.14506 | 16 ft | 8 kts | 270° |
| 2026-05-06 04:19 | 26.06809 | -80.14570 | 15 ft | 9 kts | 236° |
| 2026-05-06 04:19 | 26.06767 | -80.14620 | 15 ft | 10 kts | 256° |
| 2026-05-06 04:19 | 26.06766 | -80.14700 | 15 ft | 11 kts | 271° |
| 2026-05-06 04:20 | 26.06766 | -80.14789 | 15 ft | 12 kts | 270° |
| 2026-05-06 04:20 | 26.06767 | -80.14885 | 15 ft | 13 kts | 271° |
| 2026-05-06 04:20 | 26.06768 | -80.14991 | 16 ft | 14 kts | 270° |
| 2026-05-06 04:20 | 26.06765 | -80.15102 | 16 ft | 15 kts | 255° |
| 2026-05-06 04:21 | 26.06703 | -80.15155 | 20 ft | 10 kts | 244° |
| 2026-05-06 04:21 | 26.06696 | -80.15237 | 20 ft | 12 kts | 269° |
| 2026-05-06 04:21 | 26.06696 | -80.15362 | 16 ft | 18 kts | 270° |
| 2026-05-06 04:21 | 26.06698 | -80.15512 | 16 ft | 20 kts | 270° |
| 2026-05-06 04:22 | 26.06698 | -80.15666 | 16 ft | 19 kts | 270° |
| 2026-05-06 04:22 | 26.06699 | -80.15769 | 16 ft | 12 kts | 269° |
| 2026-05-06 04:22 | 26.06682 | -80.15812 | 18 ft | 0 kts | 223° |
| 2026-05-06 04:23 | 26.06677 | -80.15816 | 17 ft | 5 kts | 215° |
| 2026-05-06 04:23 | 26.06621 | -80.15822 | 17 ft | 9 kts | 178° |
| 2026-05-06 04:24 | 26.06589 | -80.15777 | 19 ft | 9 kts | 92° |
| 2026-05-06 04:24 | 26.06589 | -80.15764 | 19 ft | 0 kts | 90° |
| 2026-05-06 04:24 | 26.06588 | -80.15491 | 23 ft | 70 kts | 90° |
| 2026-05-06 04:25 | 26.06584 | -80.14723 | 29 ft | 125 kts | 90° |
| 2026-05-06 04:25 | 26.06575 | -80.13626 | 220 ft | 148 kts | 90° |
| 2026-05-06 04:25 | 26.06592 | -80.12501 | 768 ft | 148 kts | 87° |
| 2026-05-06 04:25 | 26.06617 | -80.11352 | 1374 ft | 151 kts | 89° |
| 2026-05-06 04:26 | 26.06634 | -80.10114 | 1674 ft | 171 kts | 89° |
| 2026-05-06 04:26 | 26.06650 | -80.08704 | 1924 ft | 194 kts | 90° |
| 2026-05-06 04:26 | 26.06665 | -80.07102 | 2225 ft | 220 kts | 89° |
| 2026-05-06 04:26 | 26.06682 | -80.05315 | 2623 ft | 243 kts | 89° |
| 2026-05-06 04:27 | 26.06698 | -80.03371 | 3254 ft | 256 kts | 89° |
| 2026-05-06 04:27 | 26.06711 | -80.01383 | 4010 ft | 265 kts | 88° |
| 2026-05-06 04:27 | 26.06716 | -79.99297 | 4806 ft | 274 kts | 89° |
| 2026-05-06 04:27 | 26.06703 | -79.97138 | 5538 ft | 283 kts | 90° |
| 2026-05-06 04:28 | 26.06683 | -79.94935 | 6369 ft | 288 kts | 90° |
| 2026-05-06 04:28 | 26.06659 | -79.92692 | 7160 ft | 292 kts | 90° |
| 2026-05-06 04:28 | 26.06633 | -79.90427 | 7958 ft | 295 kts | 90° |
| 2026-05-06 04:28 | 26.06605 | -79.88129 | 8693 ft | 300 kts | 89° |
| 2026-05-06 04:29 | 26.06579 | -79.85793 | 9428 ft | 304 kts | 89° |
| 2026-05-06 04:29 | 26.06539 | -79.83419 | 10109 ft | 311 kts | 92° |
| 2026-05-06 04:29 | 26.06239 | -79.80951 | 10323 ft | 334 kts | 98° |
| 2026-05-06 04:29 | 26.05829 | -79.78325 | 10531 ft | 353 kts | 99° |
| 2026-05-06 04:30 | 26.05406 | -79.75642 | 11029 ft | 360 kts | 99° |
| 2026-05-06 04:30 | 26.04968 | -79.72886 | 11634 ft | 364 kts | 99° |
| 2026-05-06 04:30 | 26.04528 | -79.70105 | 12280 ft | 367 kts | 99° |
| 2026-05-06 04:30 | 26.04085 | -79.67299 | 12932 ft | 369 kts | 99° |
| 2026-05-06 04:31 | 26.03634 | -79.64478 | 13572 ft | 372 kts | 100° |
| 2026-05-06 04:31 | 26.03082 | -79.61652 | 14156 ft | 376 kts | 103° |
| 2026-05-06 04:31 | 26.02436 | -79.58824 | 14684 ft | 379 kts | 104° |
| 2026-05-06 04:31 | 26.01737 | -79.55983 | 15212 ft | 383 kts | 105° |
| 2026-05-06 04:32 | 26.01018 | -79.53116 | 15728 ft | 387 kts | 104° |
| 2026-05-06 04:32 | 26.00310 | -79.50262 | 16240 ft | 390 kts | 104° |
| 2026-05-06 04:32 | 25.99599 | -79.47337 | 16759 ft | 394 kts | 104° |
| 2026-05-06 04:32 | 25.98891 | -79.44383 | 17273 ft | 397 kts | 103° |
| 2026-05-06 04:33 | 25.98184 | -79.41398 | 17781 ft | 401 kts | 103° |
| 2026-05-06 04:33 | 25.97452 | -79.38388 | 18282 ft | 406 kts | 107° |
| 2026-05-06 04:33 | 25.96466 | -79.35431 | 18726 ft | 410 kts | 110° |
| 2026-05-06 04:33 | 25.95438 | -79.32458 | 19163 ft | 414 kts | 110° |
| 2026-05-06 04:34 | 25.94394 | -79.29461 | 19596 ft | 418 kts | 110° |
| 2026-05-06 04:34 | 25.93340 | -79.26435 | 20037 ft | 422 kts | 110° |
| 2026-05-06 04:34 | 25.92293 | -79.23424 | 20470 ft | 426 kts | 110° |
| 2026-05-06 04:34 | 25.91221 | -79.20343 | 20904 ft | 430 kts | 110° |
| 2026-05-06 04:35 | 25.90138 | -79.17234 | 21334 ft | 434 kts | 110° |
| 2026-05-06 04:35 | 25.89045 | -79.14097 | 21765 ft | 438 kts | 110° |
| 2026-05-06 04:35 | 25.87942 | -79.10931 | 22187 ft | 442 kts | 110° |
| 2026-05-06 04:35 | 25.86826 | -79.07739 | 22617 ft | 445 kts | 110° |
| 2026-05-06 04:36 | 25.85697 | -79.04520 | 23026 ft | 450 kts | 110° |
| 2026-05-06 04:36 | 25.84558 | -79.01270 | 23428 ft | 454 kts | 110° |
| 2026-05-06 04:36 | 25.83409 | -78.97993 | 23778 ft | 458 kts | 110° |
| 2026-05-06 04:36 | 25.82263 | -78.94737 | 24109 ft | 461 kts | 110° |
| 2026-05-06 04:37 | 25.81094 | -78.91413 | 24449 ft | 464 kts | 110° |
| 2026-05-06 04:37 | 25.79920 | -78.88071 | 24802 ft | 466 kts | 109° |
| 2026-05-06 04:37 | 25.78741 | -78.84709 | 25143 ft | 469 kts | 109° |
| 2026-05-06 04:37 | 25.77558 | -78.81330 | 25480 ft | 471 kts | 109° |
| 2026-05-06 04:38 | 25.76364 | -78.77935 | 25816 ft | 474 kts | 109° |
| 2026-05-06 04:38 | 25.75159 | -78.74524 | 26150 ft | 476 kts | 109° |
| 2026-05-06 04:38 | 25.73764 | -78.71178 | 26472 ft | 481 kts | 118° |
| 2026-05-06 04:38 | 25.71974 | -78.68084 | 26794 ft | 484 kts | 123° |
| 2026-05-06 04:39 | 25.70071 | -78.64991 | 27096 ft | 487 kts | 123° |
| 2026-05-06 04:39 | 25.68155 | -78.61877 | 27393 ft | 490 kts | 123° |
| 2026-05-06 04:39 | 25.66231 | -78.58750 | 27702 ft | 493 kts | 123° |
| 2026-05-06 04:39 | 25.64294 | -78.55600 | 28011 ft | 495 kts | 123° |
| 2026-05-06 04:40 | 25.62351 | -78.52436 | 28332 ft | 498 kts | 122° |
| 2026-05-06 04:40 | 25.60400 | -78.49256 | 28648 ft | 501 kts | 122° |
| 2026-05-06 04:40 | 25.58562 | -78.45977 | 28956 ft | 501 kts | 115° |
| 2026-05-06 04:40 | 25.57155 | -78.42453 | 29267 ft | 500 kts | 105° |
| 2026-05-06 04:41 | 25.56164 | -78.38820 | 29562 ft | 500 kts | 101° |
| 2026-05-06 04:41 | 25.55217 | -78.35106 | 29887 ft | 503 kts | 101° |
| 2026-05-06 04:41 | 25.54262 | -78.31374 | 30191 ft | 505 kts | 101° |
| 2026-05-06 04:41 | 25.53301 | -78.27627 | 30451 ft | 507 kts | 101° |
| 2026-05-06 04:42 | 25.52333 | -78.23861 | 30706 ft | 510 kts | 101° |
| 2026-05-06 04:42 | 25.51359 | -78.20075 | 30961 ft | 512 kts | 101° |
| 2026-05-06 04:42 | 25.50382 | -78.16277 | 31210 ft | 514 kts | 101° |
| 2026-05-06 04:42 | 25.49403 | -78.12463 | 31455 ft | 517 kts | 101° |
| 2026-05-06 04:43 | 25.48433 | -78.08680 | 31693 ft | 519 kts | 101° |
| 2026-05-06 04:43 | 25.47444 | -78.04836 | 31991 ft | 519 kts | 101° |
| 2026-05-06 04:43 | 25.46455 | -78.01003 | 32340 ft | 519 kts | 101° |
| 2026-05-06 04:43 | 25.45462 | -77.97168 | 32678 ft | 518 kts | 101° |
| 2026-05-06 04:44 | 25.44467 | -77.93335 | 33028 ft | 518 kts | 101° |
| 2026-05-06 04:44 | 25.43473 | -77.89513 | 33378 ft | 517 kts | 101° |
| 2026-05-06 04:44 | 25.42480 | -77.85691 | 33720 ft | 517 kts | 100° |
| 2026-05-06 04:44 | 25.41490 | -77.81866 | 34061 ft | 517 kts | 100° |
| 2026-05-06 04:45 | 25.40513 | -77.78099 | 34354 ft | 517 kts | 100° |
| 2026-05-06 04:45 | 25.39524 | -77.74284 | 34662 ft | 516 kts | 100° |
| 2026-05-06 04:45 | 25.38535 | -77.70471 | 34968 ft | 516 kts | 100° |
| 2026-05-06 04:45 | 25.37544 | -77.66659 | 35258 ft | 516 kts | 100° |
| 2026-05-06 04:46 | 25.36550 | -77.62851 | 35545 ft | 515 kts | 100° |
| 2026-05-06 04:46 | 25.35554 | -77.59049 | 35834 ft | 515 kts | 100° |
| 2026-05-06 04:46 | 25.34557 | -77.55249 | 36104 ft | 515 kts | 100° |
| 2026-05-06 04:46 | 25.33576 | -77.51501 | 36370 ft | 514 kts | 99° |
| 2026-05-06 04:47 | 25.32584 | -77.47706 | 36632 ft | 514 kts | 99° |
| 2026-05-06 04:47 | 25.31588 | -77.43910 | 36888 ft | 514 kts | 99° |
| 2026-05-06 04:47 | 25.30589 | -77.40115 | 37049 ft | 514 kts | 99° |
| 2026-05-06 04:48 | 25.27881 | -77.32762 | 37078 ft | 524 kts | 117° |
| 2026-05-06 04:48 | 25.23929 | -77.25960 | 37074 ft | 526 kts | 119° |
| 2026-05-06 04:49 | 25.20000 | -77.19211 | 37074 ft | 526 kts | 118° |
| 2026-05-06 04:49 | 25.16044 | -77.12417 | 37072 ft | 526 kts | 118° |
| 2026-05-06 04:50 | 25.12078 | -77.05630 | 37075 ft | 526 kts | 119° |
| 2026-05-06 04:50 | 25.08105 | -76.98844 | 37079 ft | 527 kts | 119° |
| 2026-05-06 04:51 | 25.04153 | -76.92106 | 37065 ft | 527 kts | 119° |
| 2026-05-06 04:51 | 25.00172 | -76.85329 | 37091 ft | 527 kts | 119° |
| 2026-05-06 04:52 | 24.96186 | -76.78550 | 37089 ft | 527 kts | 119° |
| 2026-05-06 04:52 | 24.92196 | -76.71776 | 37086 ft | 527 kts | 119° |
| 2026-05-06 04:53 | 24.88232 | -76.65054 | 37085 ft | 527 kts | 119° |
| 2026-05-06 04:53 | 24.84235 | -76.58289 | 37077 ft | 527 kts | 119° |
| 2026-05-06 04:54 | 24.80240 | -76.51530 | 37082 ft | 527 kts | 119° |
| 2026-05-06 04:54 | 24.76236 | -76.44774 | 37091 ft | 527 kts | 120° |
| 2026-05-06 04:55 | 24.72231 | -76.38022 | 37088 ft | 527 kts | 120° |
| 2026-05-06 04:55 | 24.68254 | -76.31325 | 37070 ft | 527 kts | 120° |
| 2026-05-06 04:56 | 24.64244 | -76.24587 | 37081 ft | 526 kts | 120° |
| 2026-05-06 04:56 | 24.60237 | -76.17857 | 37083 ft | 526 kts | 120° |
| 2026-05-06 04:57 | 24.56238 | -76.11122 | 37099 ft | 526 kts | 119° |
| 2026-05-06 04:57 | 24.52416 | -76.04346 | 37096 ft | 525 kts | 117° |
| 2026-05-06 04:58 | 24.48661 | -75.97472 | 37089 ft | 525 kts | 117° |
| 2026-05-06 04:58 | 24.44874 | -75.90624 | 37090 ft | 525 kts | 118° |
| 2026-05-06 04:59 | 24.41038 | -75.83803 | 37088 ft | 525 kts | 118° |
| 2026-05-06 04:59 | 24.37216 | -75.77038 | 37101 ft | 525 kts | 119° |
| 2026-05-06 05:00 | 24.33378 | -75.70235 | 37099 ft | 524 kts | 119° |
| 2026-05-06 05:00 | 24.29540 | -75.63438 | 37077 ft | 524 kts | 119° |
| 2026-05-06 05:01 | 24.25712 | -75.56643 | 37088 ft | 524 kts | 118° |
| 2026-05-06 05:01 | 24.21886 | -75.49859 | 37090 ft | 523 kts | 119° |
| 2026-05-06 05:02 | 24.18075 | -75.43130 | 37091 ft | 523 kts | 119° |
| 2026-05-06 05:02 | 24.14242 | -75.36357 | 37096 ft | 523 kts | 119° |
| 2026-05-06 05:03 | 24.10412 | -75.29595 | 37090 ft | 523 kts | 119° |
| 2026-05-06 05:03 | 24.06567 | -75.22842 | 37092 ft | 522 kts | 119° |
| 2026-05-06 05:04 | 24.02720 | -75.16100 | 37085 ft | 522 kts | 119° |
| 2026-05-06 05:04 | 23.98905 | -75.09402 | 37087 ft | 522 kts | 119° |
| 2026-05-06 05:05 | 23.95062 | -75.02668 | 37109 ft | 521 kts | 119° |
| 2026-05-06 05:05 | 23.91224 | -74.95964 | 37108 ft | 519 kts | 120° |
| 2026-05-06 05:06 | 23.87403 | -74.89277 | 37101 ft | 518 kts | 119° |
| 2026-05-06 05:06 | 23.83614 | -74.82648 | 37102 ft | 518 kts | 120° |
| 2026-05-06 05:07 | 23.79795 | -74.75988 | 37094 ft | 517 kts | 120° |
| 2026-05-06 05:07 | 23.75973 | -74.69336 | 37094 ft | 517 kts | 120° |
| 2026-05-06 05:08 | 23.72142 | -74.62693 | 37095 ft | 517 kts | 120° |
| 2026-05-06 05:08 | 23.68314 | -74.56057 | 37092 ft | 517 kts | 120° |
| 2026-05-06 05:09 | 23.64516 | -74.49468 | 37094 ft | 517 kts | 120° |
| 2026-05-06 05:09 | 23.60693 | -74.42830 | 37091 ft | 517 kts | 120° |
| 2026-05-06 05:10 | 23.56862 | -74.36205 | 37075 ft | 517 kts | 120° |
| 2026-05-06 05:10 | 23.53024 | -74.29583 | 37093 ft | 517 kts | 120° |
| 2026-05-06 05:11 | 23.49209 | -74.23014 | 37095 ft | 516 kts | 120° |
| 2026-05-06 05:11 | 23.45371 | -74.16402 | 37099 ft | 516 kts | 120° |
| 2026-05-06 05:12 | 23.41536 | -74.09795 | 37098 ft | 516 kts | 120° |
| 2026-05-06 05:12 | 23.37696 | -74.03189 | 37094 ft | 516 kts | 120° |
| 2026-05-06 05:13 | 23.33875 | -73.96640 | 37101 ft | 516 kts | 120° |
| 2026-05-06 05:13 | 23.30025 | -73.90052 | 37098 ft | 516 kts | 120° |
| 2026-05-06 05:14 | 23.26175 | -73.83469 | 37100 ft | 516 kts | 120° |
| 2026-05-06 05:14 | 23.22323 | -73.76888 | 37097 ft | 516 kts | 120° |
| 2026-05-06 05:15 | 23.18479 | -73.70310 | 37072 ft | 516 kts | 120° |
| 2026-05-06 05:15 | 23.14648 | -73.63783 | 37087 ft | 516 kts | 121° |
| 2026-05-06 05:16 | 23.10796 | -73.57214 | 37092 ft | 515 kts | 121° |
| 2026-05-06 05:16 | 23.06938 | -73.50658 | 37094 ft | 515 kts | 121° |
| 2026-05-06 05:17 | 23.03076 | -73.44107 | 37095 ft | 515 kts | 121° |
| 2026-05-06 05:17 | 22.99240 | -73.37605 | 37097 ft | 515 kts | 121° |
| 2026-05-06 05:18 | 22.95385 | -73.31061 | 37090 ft | 515 kts | 121° |
| 2026-05-06 05:18 | 22.91522 | -73.24527 | 37098 ft | 514 kts | 121° |
| 2026-05-06 05:19 | 22.87648 | -73.18004 | 37094 ft | 514 kts | 121° |
| 2026-05-06 05:19 | 22.83779 | -73.11489 | 37091 ft | 514 kts | 121° |
| 2026-05-06 05:20 | 22.79924 | -73.04972 | 37079 ft | 513 kts | 121° |
| 2026-05-06 05:20 | 22.76090 | -72.98510 | 37089 ft | 513 kts | 121° |
| 2026-05-06 05:21 | 22.72224 | -72.92018 | 37101 ft | 513 kts | 121° |
| 2026-05-06 05:21 | 22.68361 | -72.85529 | 37098 ft | 512 kts | 121° |
| 2026-05-06 05:22 | 22.64495 | -72.79047 | 37098 ft | 512 kts | 121° |
| 2026-05-06 05:22 | 22.60657 | -72.72620 | 37096 ft | 512 kts | 121° |
| 2026-05-06 05:23 | 22.56791 | -72.66158 | 37091 ft | 511 kts | 121° |
| 2026-05-06 05:23 | 22.51005 | -72.56476 | 37095 ft | 511 kts | 121° |
| 2026-05-06 05:24 | 22.47136 | -72.50030 | 37094 ft | 511 kts | 122° |
| 2026-05-06 05:24 | 22.43293 | -72.43640 | 37072 ft | 510 kts | 121° |
| 2026-05-06 05:25 | 22.39427 | -72.37204 | 37084 ft | 510 kts | 121° |
| 2026-05-06 05:25 | 22.35562 | -72.30772 | 37089 ft | 510 kts | 121° |
| 2026-05-06 05:26 | 22.31686 | -72.24356 | 37094 ft | 510 kts | 122° |
| 2026-05-06 05:26 | 22.27838 | -72.17986 | 37095 ft | 509 kts | 122° |
| 2026-05-06 05:27 | 22.23969 | -72.11583 | 37091 ft | 509 kts | 122° |
| 2026-05-06 05:27 | 22.20102 | -72.05183 | 37091 ft | 509 kts | 122° |
| 2026-05-06 05:28 | 22.16235 | -71.98790 | 37095 ft | 509 kts | 122° |
| 2026-05-06 05:28 | 22.12388 | -71.92443 | 37093 ft | 509 kts | 122° |
| 2026-05-06 05:29 | 22.08516 | -71.86059 | 37095 ft | 508 kts | 122° |
| 2026-05-06 05:29 | 22.04644 | -71.79683 | 37077 ft | 508 kts | 122° |
| 2026-05-06 05:30 | 22.00772 | -71.73320 | 37089 ft | 507 kts | 122° |
| 2026-05-06 05:30 | 21.96927 | -71.67009 | 37092 ft | 507 kts | 122° |
| 2026-05-06 05:31 | 21.93058 | -71.60658 | 37094 ft | 507 kts | 122° |
| 2026-05-06 05:31 | 21.89187 | -71.54308 | 37093 ft | 507 kts | 122° |
| 2026-05-06 05:32 | 21.85313 | -71.47981 | 37093 ft | 506 kts | 122° |
| 2026-05-06 05:32 | 21.81469 | -71.41706 | 37094 ft | 505 kts | 122° |
| 2026-05-06 05:33 | 21.77605 | -71.35394 | 37095 ft | 505 kts | 122° |
| 2026-05-06 05:33 | 21.73739 | -71.29093 | 37093 ft | 505 kts | 122° |
| 2026-05-06 05:34 | 21.69871 | -71.22796 | 37090 ft | 504 kts | 122° |
| 2026-05-06 05:34 | 21.66007 | -71.16501 | 37081 ft | 504 kts | 122° |
| 2026-05-06 05:35 | 21.62147 | -71.10218 | 37089 ft | 504 kts | 122° |
| 2026-05-06 05:35 | 21.58306 | -71.03989 | 37091 ft | 503 kts | 122° |
| 2026-05-06 05:36 | 21.54402 | -70.97751 | 37094 ft | 503 kts | 123° |
| 2026-05-06 05:36 | 21.50441 | -70.91556 | 37093 ft | 503 kts | 123° |
| 2026-05-06 05:37 | 21.46476 | -70.85372 | 37098 ft | 502 kts | 123° |
| 2026-05-06 05:37 | 21.42563 | -70.79231 | 37095 ft | 501 kts | 123° |
| 2026-05-06 05:38 | 21.38633 | -70.73059 | 37093 ft | 501 kts | 123° |
| 2026-05-06 05:38 | 21.34703 | -70.66897 | 37091 ft | 500 kts | 123° |
| 2026-05-06 05:39 | 21.30773 | -70.60747 | 37092 ft | 500 kts | 123° |
| 2026-05-06 05:39 | 21.26841 | -70.54606 | 37081 ft | 499 kts | 123° |
| 2026-05-06 05:40 | 21.22944 | -70.48521 | 37092 ft | 498 kts | 123° |
| 2026-05-06 05:40 | 21.19028 | -70.42417 | 37094 ft | 497 kts | 123° |
| 2026-05-06 05:41 | 21.15116 | -70.36326 | 37092 ft | 496 kts | 123° |
| 2026-05-06 05:41 | 21.11209 | -70.30242 | 37090 ft | 495 kts | 123° |
| 2026-05-06 05:42 | 21.07327 | -70.24212 | 37087 ft | 495 kts | 123° |
| 2026-05-06 05:42 | 21.03422 | -70.18144 | 37097 ft | 494 kts | 123° |
| 2026-05-06 05:43 | 20.99522 | -70.12093 | 37095 ft | 493 kts | 123° |
| 2026-05-06 05:43 | 20.95627 | -70.06062 | 37094 ft | 492 kts | 123° |
| 2026-05-06 05:44 | 20.91759 | -70.00081 | 37086 ft | 492 kts | 123° |
| 2026-05-06 05:44 | 20.87871 | -69.94068 | 37077 ft | 491 kts | 123° |
| 2026-05-06 05:45 | 20.83986 | -69.88059 | 37085 ft | 491 kts | 123° |
| 2026-05-06 05:45 | 20.80104 | -69.82056 | 37097 ft | 491 kts | 124° |
| 2026-05-06 05:46 | 20.76250 | -69.76104 | 37094 ft | 490 kts | 124° |
| 2026-05-06 05:46 | 20.72367 | -69.70122 | 37092 ft | 490 kts | 124° |
| 2026-05-06 05:47 | 20.68477 | -69.64154 | 37092 ft | 489 kts | 124° |
| 2026-05-06 05:47 | 20.64590 | -69.58191 | 37088 ft | 489 kts | 124° |
| 2026-05-06 05:48 | 20.60733 | -69.52272 | 37098 ft | 489 kts | 125° |
| 2026-05-06 05:48 | 20.56848 | -69.46315 | 37092 ft | 489 kts | 125° |
| 2026-05-06 05:49 | 20.52958 | -69.40369 | 37092 ft | 488 kts | 125° |
| 2026-05-06 05:49 | 20.49077 | -69.34426 | 37082 ft | 488 kts | 126° |
| 2026-05-06 05:50 | 20.45224 | -69.28527 | 37085 ft | 488 kts | 125° |
| 2026-05-06 05:50 | 20.41346 | -69.22596 | 37086 ft | 488 kts | 126° |
| 2026-05-06 05:51 | 20.37459 | -69.16674 | 37094 ft | 487 kts | 126° |
| 2026-05-06 05:51 | 20.33574 | -69.10758 | 37090 ft | 487 kts | 126° |
| 2026-05-06 05:52 | 20.29718 | -69.04887 | 37091 ft | 487 kts | 126° |
| 2026-05-06 05:52 | 20.25834 | -68.98983 | 37087 ft | 486 kts | 127° |
| 2026-05-06 05:53 | 20.21953 | -68.93084 | 37087 ft | 486 kts | 126° |
| 2026-05-06 05:53 | 20.18073 | -68.87187 | 37084 ft | 486 kts | 126° |
| 2026-05-06 05:54 | 20.14187 | -68.81298 | 37088 ft | 486 kts | 128° |
| 2026-05-06 05:54 | 20.10331 | -68.75454 | 37088 ft | 485 kts | 128° |
| 2026-05-06 05:55 | 20.06469 | -68.69565 | 37088 ft | 486 kts | 127° |
| 2026-05-06 05:55 | 20.02747 | -68.63570 | 37087 ft | 486 kts | 125° |
| 2026-05-06 05:56 | 19.99084 | -68.57529 | 37084 ft | 486 kts | 125° |
| 2026-05-06 05:56 | 19.95418 | -68.51555 | 37081 ft | 486 kts | 126° |
| 2026-05-06 05:57 | 19.91702 | -68.45566 | 37090 ft | 485 kts | 127° |
| 2026-05-06 05:57 | 19.87979 | -68.39594 | 37090 ft | 485 kts | 127° |
| 2026-05-06 05:58 | 19.84261 | -68.33627 | 37087 ft | 484 kts | 127° |
| 2026-05-06 05:58 | 19.80569 | -68.27700 | 37086 ft | 484 kts | 127° |
| 2026-05-06 05:59 | 19.76858 | -68.21738 | 37084 ft | 484 kts | 127° |
| 2026-05-06 05:59 | 19.73143 | -68.15777 | 37076 ft | 484 kts | 127° |
| 2026-05-06 06:00 | 19.69432 | -68.09827 | 37087 ft | 483 kts | 127° |
| 2026-05-06 06:00 | 19.65748 | -68.03930 | 37090 ft | 482 kts | 127° |
| 2026-05-06 06:01 | 19.62039 | -67.98006 | 37089 ft | 482 kts | 127° |
| 2026-05-06 06:01 | 19.58330 | -67.92085 | 37084 ft | 482 kts | 127° |
| 2026-05-06 06:02 | 19.54805 | -67.86474 | 37091 ft | 486 kts | 127° |
| 2026-05-06 06:02 | 19.51102 | -67.80569 | 36738 ft | 482 kts | 127° |
| 2026-05-06 06:03 | 19.49253 | -67.77614 | 36495 ft | 481 kts | 127° |
| 2026-05-06 06:03 | 19.47407 | -67.74663 | 36248 ft | 480 kts | 127° |
| 2026-05-06 06:03 | 19.45560 | -67.71716 | 35742 ft | 481 kts | 127° |
| 2026-05-06 06:03 | 19.43696 | -67.68749 | 34912 ft | 486 kts | 127° |
| 2026-05-06 06:04 | 19.41814 | -67.65761 | 34065 ft | 489 kts | 127° |
| 2026-05-06 06:04 | 19.39916 | -67.62752 | 33030 ft | 494 kts | 126° |
| 2026-05-06 06:04 | 19.38001 | -67.59716 | 32058 ft | 497 kts | 125° |
| 2026-05-06 06:04 | 19.36081 | -67.56670 | 31387 ft | 494 kts | 125° |
| 2026-05-06 06:05 | 19.34210 | -67.53698 | 30801 ft | 490 kts | 125° |
| 2026-05-06 06:05 | 19.32328 | -67.50706 | 30199 ft | 487 kts | 124° |
| 2026-05-06 06:05 | 19.30455 | -67.47732 | 29515 ft | 484 kts | 124° |
| 2026-05-06 06:05 | 19.28597 | -67.44784 | 28915 ft | 479 kts | 124° |
| 2026-05-06 06:06 | 19.26756 | -67.41868 | 28299 ft | 474 kts | 124° |
| 2026-05-06 06:06 | 19.24931 | -67.38978 | 27697 ft | 470 kts | 124° |
| 2026-05-06 06:06 | 19.23121 | -67.36113 | 27100 ft | 466 kts | 124° |
| 2026-05-06 06:06 | 19.21322 | -67.33268 | 26506 ft | 463 kts | 124° |
| 2026-05-06 06:07 | 19.19539 | -67.30449 | 25922 ft | 460 kts | 124° |
| 2026-05-06 06:07 | 19.17767 | -67.27647 | 25353 ft | 457 kts | 124° |
| 2026-05-06 06:07 | 19.16030 | -67.24901 | 24800 ft | 454 kts | 124° |
| 2026-05-06 06:07 | 19.14280 | -67.22140 | 24260 ft | 451 kts | 124° |
| 2026-05-06 06:08 | 19.12539 | -67.19397 | 23731 ft | 448 kts | 124° |
| 2026-05-06 06:08 | 19.10811 | -67.16671 | 23156 ft | 444 kts | 124° |
| 2026-05-06 06:08 | 19.09101 | -67.13972 | 22652 ft | 439 kts | 124° |
| 2026-05-06 06:08 | 19.07407 | -67.11302 | 22154 ft | 435 kts | 124° |
| 2026-05-06 06:09 | 19.05725 | -67.08654 | 21636 ft | 432 kts | 124° |
| 2026-05-06 06:09 | 19.04056 | -67.06024 | 21127 ft | 430 kts | 124° |
| 2026-05-06 06:09 | 19.02392 | -67.03406 | 20587 ft | 428 kts | 124° |
| 2026-05-06 06:09 | 19.00757 | -67.00834 | 20075 ft | 427 kts | 124° |
| 2026-05-06 06:10 | 18.99104 | -66.98234 | 19521 ft | 426 kts | 125° |
| 2026-05-06 06:10 | 18.97454 | -66.95642 | 19046 ft | 423 kts | 125° |
| 2026-05-06 06:10 | 18.95817 | -66.93072 | 18474 ft | 422 kts | 125° |
| 2026-05-06 06:10 | 18.94203 | -66.90533 | 18306 ft | 409 kts | 125° |
| 2026-05-06 06:11 | 18.92646 | -66.88083 | 18190 ft | 395 kts | 125° |
| 2026-05-06 06:11 | 18.91144 | -66.85721 | 18049 ft | 381 kts | 125° |
| 2026-05-06 06:11 | 18.89692 | -66.83441 | 17921 ft | 368 kts | 125° |
| 2026-05-06 06:11 | 18.88307 | -66.81265 | 17777 ft | 357 kts | 125° |
| 2026-05-06 06:12 | 18.86935 | -66.79112 | 17476 ft | 351 kts | 125° |
| 2026-05-06 06:12 | 18.85578 | -66.76986 | 17117 ft | 348 kts | 125° |
| 2026-05-06 06:12 | 18.84233 | -66.74879 | 16758 ft | 345 kts | 125° |
| 2026-05-06 06:12 | 18.82897 | -66.72788 | 16388 ft | 342 kts | 125° |
| 2026-05-06 06:13 | 18.81571 | -66.70714 | 16023 ft | 340 kts | 125° |
| 2026-05-06 06:13 | 18.80250 | -66.68648 | 15659 ft | 338 kts | 125° |
| 2026-05-06 06:13 | 18.78940 | -66.66601 | 15308 ft | 336 kts | 125° |
| 2026-05-06 06:13 | 18.77653 | -66.64590 | 14947 ft | 335 kts | 125° |
| 2026-05-06 06:14 | 18.76358 | -66.62561 | 14619 ft | 332 kts | 125° |
| 2026-05-06 06:14 | 18.74951 | -66.60643 | 14276 ft | 329 kts | 130° |
| 2026-05-06 06:14 | 18.73507 | -66.58787 | 13976 ft | 326 kts | 130° |
| 2026-05-06 06:14 | 18.72080 | -66.56942 | 13611 ft | 324 kts | 130° |
| 2026-05-06 06:15 | 18.70661 | -66.55106 | 13236 ft | 322 kts | 130° |
| 2026-05-06 06:15 | 18.69253 | -66.53282 | 12905 ft | 319 kts | 130° |
| 2026-05-06 06:15 | 18.67856 | -66.51476 | 12563 ft | 316 kts | 130° |
| 2026-05-06 06:15 | 18.66469 | -66.49686 | 12228 ft | 314 kts | 130° |
| 2026-05-06 06:16 | 18.65112 | -66.47938 | 11898 ft | 311 kts | 130° |
| 2026-05-06 06:16 | 18.63746 | -66.46178 | 11574 ft | 309 kts | 130° |
| 2026-05-06 06:16 | 18.62391 | -66.44432 | 11248 ft | 306 kts | 130° |
| 2026-05-06 06:16 | 18.61045 | -66.42701 | 10925 ft | 304 kts | 130° |
| 2026-05-06 06:17 | 18.59710 | -66.40984 | 10598 ft | 302 kts | 130° |
| 2026-05-06 06:17 | 18.58385 | -66.39279 | 10283 ft | 299 kts | 130° |
| 2026-05-06 06:17 | 18.57063 | -66.37576 | 9717 ft | 305 kts | 130° |
| 2026-05-06 06:17 | 18.55708 | -66.35833 | 8902 ft | 318 kts | 129° |
| 2026-05-06 06:18 | 18.54281 | -66.34001 | 8069 ft | 329 kts | 129° |
| 2026-05-06 06:18 | 18.52810 | -66.32110 | 7221 ft | 338 kts | 129° |
| 2026-05-06 06:18 | 18.51306 | -66.30176 | 6404 ft | 344 kts | 129° |
| 2026-05-06 06:18 | 18.49801 | -66.28241 | 5928 ft | 337 kts | 129° |
| 2026-05-06 06:19 | 18.48324 | -66.26340 | 5404 ft | 333 kts | 128° |
| 2026-05-06 06:19 | 18.46871 | -66.24465 | 4917 ft | 328 kts | 128° |
| 2026-05-06 06:19 | 18.45441 | -66.22616 | 4427 ft | 323 kts | 128° |
| 2026-05-06 06:19 | 18.44055 | -66.20824 | 3962 ft | 317 kts | 128° |
| 2026-05-06 06:20 | 18.42993 | -66.18827 | 3486 ft | 312 kts | 108° |
| 2026-05-06 06:20 | 18.42635 | -66.16593 | 3044 ft | 308 kts | 94° |
| 2026-05-06 06:20 | 18.42677 | -66.14350 | 2604 ft | 305 kts | 87° |
| 2026-05-06 06:20 | 18.42880 | -66.12140 | 2157 ft | 301 kts | 85° |
| 2026-05-06 06:21 | 18.43114 | -66.09961 | 1726 ft | 298 kts | 85° |
| 2026-05-06 06:21 | 18.43292 | -66.07831 | 1575 ft | 285 kts | 88° |
| 2026-05-06 06:21 | 18.43370 | -66.05810 | 1583 ft | 268 kts | 90° |
| 2026-05-06 06:21 | 18.43391 | -66.03928 | 1605 ft | 253 kts | 91° |
| 2026-05-06 06:22 | 18.43388 | -66.02135 | 1612 ft | 237 kts | 92° |
| 2026-05-06 06:22 | 18.43397 | -66.00635 | 1605 ft | 223 kts | 88° |
| 2026-05-06 06:22 | 18.43577 | -65.99067 | 1608 ft | 208 kts | 87° |
| 2026-05-06 06:22 | 18.43726 | -65.97565 | 1609 ft | 206 kts | 73° |
| 2026-05-06 06:23 | 18.44622 | -65.96413 | 1614 ft | 209 kts | 28° |
| 2026-05-06 06:23 | 18.45984 | -65.96273 | 1637 ft | 195 kts | 342° |
| 2026-05-06 06:23 | 18.46968 | -65.97206 | 1595 ft | 207 kts | 291° |
| 2026-05-06 06:23 | 18.47309 | -65.98716 | 1610 ft | 218 kts | 282° |
| 2026-05-06 06:24 | 18.48031 | -66.00063 | 1603 ft | 218 kts | 323° |
| 2026-05-06 06:24 | 18.49432 | -66.00556 | 1616 ft | 214 kts | 8° |
| 2026-05-06 06:24 | 18.50761 | -65.99958 | 1622 ft | 210 kts | 40° |
| 2026-05-06 06:24 | 18.52030 | -65.99194 | 1608 ft | 214 kts | 15° |
| 2026-05-06 06:25 | 18.53508 | -65.99418 | 1607 ft | 221 kts | 328° |
| 2026-05-06 06:25 | 18.54483 | -66.00637 | 1612 ft | 222 kts | 289° |
| 2026-05-06 06:25 | 18.54572 | -66.03799 | 1588 ft | 220 kts | 247° |
| 2026-05-06 06:26 | 18.54239 | -66.05352 | 1577 ft | 219 kts | 268° |
| 2026-05-06 06:26 | 18.54331 | -66.06955 | 1588 ft | 225 kts | 274° |
| 2026-05-06 06:26 | 18.54487 | -66.08596 | 1583 ft | 224 kts | 274° |
| 2026-05-06 06:26 | 18.54655 | -66.10232 | 1581 ft | 226 kts | 274° |
| 2026-05-06 06:27 | 18.54834 | -66.11881 | 1585 ft | 225 kts | 271° |
| 2026-05-06 06:27 | 18.54884 | -66.13529 | 1584 ft | 225 kts | 269° |
| 2026-05-06 06:27 | 18.54923 | -66.15184 | 1586 ft | 226 kts | 268° |
| 2026-05-06 06:27 | 18.54710 | -66.16782 | 1587 ft | 219 kts | 240° |
| 2026-05-06 06:28 | 18.53751 | -66.17944 | 1588 ft | 207 kts | 206° |
| 2026-05-06 06:28 | 18.52419 | -66.18422 | 1587 ft | 206 kts | 189° |
| 2026-05-06 06:28 | 18.51014 | -66.18689 | 1584 ft | 205 kts | 187° |
| 2026-05-06 06:28 | 18.49626 | -66.18915 | 1587 ft | 194 kts | 186° |
| 2026-05-06 06:29 | 18.48389 | -66.19074 | 1595 ft | 165 kts | 173° |
| 2026-05-06 06:29 | 18.47338 | -66.18868 | 1574 ft | 145 kts | 163° |
| 2026-05-06 06:29 | 18.46395 | -66.18598 | 1593 ft | 138 kts | 161° |
| 2026-05-06 06:29 | 18.45575 | -66.18147 | 1592 ft | 133 kts | 126° |
| 2026-05-06 06:30 | 18.45313 | -66.17227 | 1594 ft | 133 kts | 100° |
| 2026-05-06 06:30 | 18.45160 | -66.16267 | 1591 ft | 134 kts | 101° |
| 2026-05-06 06:30 | 18.45000 | -66.15317 | 1599 ft | 133 kts | 102° |
| 2026-05-06 06:30 | 18.44809 | -66.14368 | 1594 ft | 132 kts | 109° |
| 2026-05-06 06:31 | 18.44482 | -66.13465 | 1542 ft | 134 kts | 113° |
| 2026-05-06 06:31 | 18.44119 | -66.12567 | 1334 ft | 133 kts | 114° |
| 2026-05-06 06:31 | 18.43755 | -66.11672 | 1251 ft | 133 kts | 114° |
| 2026-05-06 06:31 | 18.43409 | -66.10758 | 1254 ft | 135 kts | 106° |
| 2026-05-06 06:32 | 18.43378 | -66.09766 | 1194 ft | 137 kts | 86° |
| 2026-05-06 06:32 | 18.43457 | -66.08766 | 1127 ft | 138 kts | 87° |
| 2026-05-06 06:32 | 18.43552 | -66.07776 | 1055 ft | 137 kts | 91° |
| 2026-05-06 06:32 | 18.43444 | -66.06786 | 997 ft | 137 kts | 99° |
| 2026-05-06 06:33 | 18.43364 | -66.05787 | 856 ft | 137 kts | 92° |
| 2026-05-06 06:33 | 18.43371 | -66.04779 | 697 ft | 138 kts | 90° |
| 2026-05-06 06:33 | 18.43374 | -66.03765 | 520 ft | 138 kts | 90° |
| 2026-05-06 06:33 | 18.43380 | -66.02752 | 339 ft | 139 kts | 90° |
| 2026-05-06 06:34 | 18.43361 | -66.01737 | 134 ft | 138 kts | 90° |
| 2026-05-06 06:34 | 18.43355 | -66.00747 | 25 ft | 129 kts | 88° |
| 2026-05-06 06:34 | 18.43355 | -66.00193 | 18 ft | 36 kts | 92° |
| 2026-05-06 06:34 | 18.43357 | -66.00047 | 20 ft | 19 kts | 84° |
| 2026-05-06 06:35 | 18.43403 | -65.99927 | 20 ft | 13 kts | 60° |
| 2026-05-06 06:35 | 18.43455 | -65.99901 | 19 ft | 7 kts | 306° |
| 2026-05-06 06:35 | 18.43461 | -65.99958 | 19 ft | 9 kts | 268° |
| 2026-05-06 06:35 | 18.43463 | -66.00035 | 19 ft | 12 kts | 271° |
| 2026-05-06 06:36 | 18.43464 | -66.00134 | 19 ft | 15 kts | 270° |
| 2026-05-06 06:36 | 18.43466 | -66.00255 | 19 ft | 18 kts | 277° |
| 2026-05-06 06:36 | 18.43478 | -66.00392 | 19 ft | 20 kts | 269° |
| 2026-05-06 06:36 | 18.43476 | -66.00516 | 19 ft | 13 kts | 270° |
| 2026-05-06 06:37 | 18.43476 | -66.00532 | 19 ft | 2 kts | 276° |
| 2026-05-06 06:37 | 18.43487 | -66.00543 | 19 ft | 2 kts | 321° |
| 2026-05-06 06:37 | 18.43504 | -66.00551 | 19 ft | 4 kts | 346° |
| 2026-05-06 06:37 | 18.43518 | -66.00550 | 19 ft | 2 kts | 15° |
| 2026-05-06 06:38 | 18.43531 | -66.00548 | 20 ft | 1 kts | 360° |
| 2026-05-06 06:38 | 18.43539 | -66.00549 | 19 ft | 1 kts | 355° |
| 2026-05-06 06:38 | 18.43548 | -66.00549 | 19 ft | 0 kts | 358° |